createdAt,value
2023-02-18T00:01:26.067Z,12.60
2023-02-18T00:03:53.507Z,12.60
2023-02-18T00:06:23.376Z,12.50
2023-02-18T00:08:50.647Z,12.50
2023-02-18T00:11:20.610Z,12.60
2023-02-18T00:14:09.045Z,12.50
2023-02-18T00:16:35.846Z,12.40
2023-02-18T00:19:05.636Z,12.40
2023-02-18T00:21:36.893Z,12.40
2023-02-18T00:24:06.081Z,12.40
2023-02-18T00:26:33.816Z,12.50
2023-02-18T00:29:01.138Z,12.50
2023-02-18T00:31:34.454Z,12.60
2023-02-18T00:34:02.013Z,12.80
2023-02-18T00:36:29.502Z,12.70
2023-02-18T00:38:59.694Z,12.70
2023-02-18T00:41:28.798Z,12.60
2023-02-18T00:43:55.930Z,12.60
2023-02-18T00:46:24.638Z,12.70
2023-02-18T00:48:51.621Z,12.60
2023-02-18T00:51:18.429Z,12.60
2023-02-18T00:53:45.305Z,12.60
2023-02-18T00:56:12.428Z,12.50
2023-02-18T00:58:39.310Z,12.60
2023-02-18T01:01:07.838Z,12.50
2023-02-18T01:03:35.747Z,12.40
2023-02-18T01:06:03.169Z,12.40
2023-02-18T01:08:30.338Z,12.30
2023-02-18T01:10:59.369Z,12.40
2023-02-18T01:13:27.294Z,12.40
2023-02-18T01:15:54.590Z,12.50
2023-02-18T01:18:22.671Z,12.40
2023-02-18T01:20:49.649Z,12.40
2023-02-18T01:23:17.069Z,12.40
2023-02-18T01:25:44.212Z,12.30
2023-02-18T01:28:12.773Z,12.30
2023-02-18T01:30:40.083Z,12.30
2023-02-18T01:33:07.628Z,12.30
2023-02-18T01:35:37.380Z,12.20
2023-02-18T01:38:04.494Z,12.30
2023-02-18T01:40:31.631Z,12.40
2023-02-18T01:42:58.678Z,12.30
2023-02-18T01:45:34.929Z,12.20
2023-02-18T01:48:04.549Z,12.30
2023-02-18T01:50:34.988Z,12.20
2023-02-18T01:53:02.665Z,12.20
2023-02-18T01:55:29.551Z,12.10
2023-02-18T01:57:56.675Z,12.10
2023-02-18T02:00:23.578Z,12.20
2023-02-18T02:02:52.669Z,12.10
2023-02-18T02:05:21.785Z,12.30
2023-02-18T02:07:52.352Z,12.30
2023-02-18T02:10:20.185Z,12.20
2023-02-18T02:13:22.285Z,12.20
2023-02-18T02:16:02.363Z,12.20
2023-02-18T02:18:50.427Z,12.30
2023-02-18T02:21:26.087Z,12.10
2023-02-18T02:24:29.716Z,12.20
2023-02-18T02:27:21.386Z,12.20
2023-02-18T02:30:18.211Z,12.20
2023-02-18T02:33:10.579Z,12.20
2023-02-18T02:35:50.069Z,12.10
2023-02-18T02:38:19.638Z,12.10
2023-02-18T02:41:07.312Z,12.20
2023-02-18T02:43:56.326Z,12.10
2023-02-18T02:46:37.055Z,12.10
2023-02-18T02:49:09.608Z,12.00
2023-02-18T02:51:47.093Z,12.10
2023-02-18T02:54:20.713Z,12.10
2023-02-18T02:56:47.991Z,12.10
2023-02-18T02:59:22.128Z,12.10
2023-02-18T03:02:14.936Z,12.10
2023-02-18T03:05:05.033Z,12.10
2023-02-18T03:07:46.850Z,12.10
2023-02-18T03:10:44.159Z,12.10
2023-02-18T03:13:29.712Z,12.10
2023-02-18T03:16:10.447Z,12.00
2023-02-18T03:18:43.555Z,11.90
2023-02-18T03:21:33.354Z,12.00
2023-02-18T03:24:16.317Z,11.90
2023-02-18T03:26:51.853Z,12.10
2023-02-18T03:29:21.397Z,12.10
2023-02-18T03:31:53.775Z,12.00
2023-02-18T03:34:26.560Z,12.00
2023-02-18T03:36:54.186Z,11.90
2023-02-18T03:39:23.324Z,12.00
2023-02-18T03:41:50.484Z,12.00
2023-02-18T03:44:17.469Z,12.10
2023-02-18T03:46:45.417Z,12.10
2023-02-18T03:49:13.828Z,12.00
2023-02-18T03:51:41.141Z,12.00
2023-02-18T03:54:08.742Z,12.00
2023-02-18T03:56:36.582Z,12.00
2023-02-18T03:59:04.431Z,12.10
2023-02-18T04:01:31.722Z,12.10
2023-02-18T04:03:58.858Z,12.00
2023-02-18T04:06:26.058Z,12.00
2023-02-18T04:08:52.852Z,12.00
2023-02-18T04:11:19.702Z,12.10
2023-02-18T04:13:46.790Z,11.90
2023-02-18T04:16:13.757Z,11.90
2023-02-18T04:18:40.894Z,11.90
2023-02-18T04:21:07.804Z,11.80
2023-02-18T04:23:35.059Z,11.90
2023-02-18T04:26:01.879Z,11.90
2023-02-18T04:28:28.691Z,11.90
2023-02-18T04:30:55.724Z,11.90
2023-02-18T04:33:22.819Z,11.90
2023-02-18T04:35:49.744Z,11.90
2023-02-18T04:38:16.711Z,11.90
2023-02-18T04:40:43.702Z,11.90
2023-02-18T04:43:10.676Z,11.90
2023-02-18T04:45:37.669Z,11.90
2023-02-18T04:48:04.996Z,11.90
2023-02-18T04:50:31.972Z,11.90
2023-02-18T04:52:58.853Z,12.00
2023-02-18T04:55:25.828Z,12.00
2023-02-18T04:57:52.847Z,11.90
2023-02-18T05:00:21.032Z,11.90
2023-02-18T05:02:48.419Z,11.90
2023-02-18T05:05:15.975Z,11.80
2023-02-18T05:07:43.260Z,11.70
2023-02-18T05:10:14.362Z,11.90
2023-02-18T05:12:41.326Z,11.90
2023-02-18T05:15:09.144Z,11.80
2023-02-18T05:17:36.330Z,11.80
2023-02-18T05:20:04.255Z,11.70
2023-02-18T05:22:31.324Z,11.80
2023-02-18T05:24:58.477Z,11.80
2023-02-18T05:27:25.559Z,11.80
2023-02-18T05:29:52.520Z,11.80
2023-02-18T05:32:20.098Z,11.60
2023-02-18T05:34:47.153Z,11.70
2023-02-18T05:37:14.379Z,11.70
2023-02-18T05:39:41.994Z,11.70
2023-02-18T05:42:09.024Z,11.80
2023-02-18T05:44:36.467Z,12.00
2023-02-18T05:47:11.540Z,12.10
2023-02-18T05:49:41.139Z,12.00
2023-02-18T05:52:08.882Z,12.00
2023-02-18T05:54:36.982Z,11.90
2023-02-18T05:57:04.504Z,11.80
2023-02-18T05:59:31.400Z,11.80
2023-02-18T06:01:58.562Z,11.80
2023-02-18T06:04:25.894Z,11.80
2023-02-18T06:06:53.777Z,11.80
2023-02-18T06:09:20.700Z,11.90
2023-02-18T06:11:47.851Z,11.80
2023-02-18T06:14:14.778Z,11.80
2023-02-18T06:16:41.736Z,11.80
2023-02-18T06:19:08.775Z,11.60
2023-02-18T06:21:36.017Z,11.60
2023-02-18T06:24:03.099Z,11.80
2023-02-18T06:26:30.229Z,11.90
2023-02-18T06:28:57.348Z,12.00
2023-02-18T06:31:24.445Z,11.90
2023-02-18T06:33:51.383Z,11.90
2023-02-18T06:36:18.666Z,11.80
2023-02-18T06:38:47.354Z,11.70
2023-02-18T06:41:14.961Z,11.60
2023-02-18T06:43:42.145Z,11.70
2023-02-18T06:46:09.845Z,11.70
2023-02-18T06:48:38.175Z,11.90
2023-02-18T06:51:05.534Z,11.80
2023-02-18T06:53:32.584Z,11.80
2023-02-18T06:55:59.458Z,11.70
2023-02-18T06:58:26.395Z,11.70
2023-02-18T07:00:53.472Z,11.60
2023-02-18T07:03:20.849Z,11.80
2023-02-18T07:05:47.841Z,11.80
2023-02-18T07:08:14.881Z,11.90
2023-02-18T07:10:41.704Z,11.90
2023-02-18T07:13:08.630Z,11.90
2023-02-18T07:15:35.594Z,11.90
2023-02-18T07:18:03.049Z,11.80
2023-02-18T07:20:30.443Z,11.80
2023-02-18T07:22:57.513Z,11.80
2023-02-18T07:25:25.210Z,11.80
2023-02-18T07:27:52.636Z,11.80
2023-02-18T07:30:20.956Z,11.80
2023-02-18T07:32:49.339Z,11.80
2023-02-18T07:35:24.996Z,11.90
2023-02-18T07:37:52.024Z,11.80
2023-02-18T07:40:21.381Z,11.90
2023-02-18T07:42:48.786Z,12.00
2023-02-18T07:45:16.402Z,12.00
2023-02-18T07:47:43.273Z,12.00
2023-02-18T07:50:11.504Z,12.00
2023-02-18T07:52:38.619Z,12.10
2023-02-18T07:55:05.999Z,12.00
2023-02-18T07:57:32.861Z,12.00
2023-02-18T07:59:59.847Z,12.00
2023-02-18T08:02:27.502Z,12.10
2023-02-18T08:04:54.665Z,12.00
2023-02-18T08:07:23.331Z,12.00
2023-02-18T08:09:50.982Z,12.10
2023-02-18T08:12:18.326Z,12.00
2023-02-18T08:14:45.649Z,12.10
2023-02-18T08:17:12.890Z,12.00
2023-02-18T08:19:39.876Z,12.10
2023-02-18T08:22:12.592Z,12.00
2023-02-18T08:24:39.394Z,12.10
2023-02-18T08:27:06.370Z,12.10
2023-02-18T08:29:44.529Z,12.10
2023-02-18T08:32:15.482Z,12.00
2023-02-18T08:34:42.423Z,12.00
2023-02-18T08:37:09.270Z,12.00
2023-02-18T08:39:39.602Z,12.00
2023-02-18T08:42:06.643Z,12.00
2023-02-18T08:44:33.656Z,12.00
2023-02-18T08:47:00.532Z,12.10
2023-02-18T08:49:27.411Z,12.10
2023-02-18T08:51:57.601Z,12.10
2023-02-18T08:54:27.615Z,12.10
2023-02-18T08:56:56.097Z,12.00
2023-02-18T08:59:22.986Z,12.00
2023-02-18T09:01:50.511Z,12.10
2023-02-18T09:04:18.078Z,12.20
2023-02-18T09:06:46.856Z,12.20
2023-02-18T09:09:14.432Z,12.20
2023-02-18T09:11:41.364Z,12.20
2023-02-18T09:14:08.423Z,12.20
2023-02-18T09:16:36.467Z,12.20
2023-02-18T09:19:03.376Z,12.20
2023-02-18T09:21:30.793Z,12.40
2023-02-18T09:23:58.351Z,12.30
2023-02-18T09:26:27.296Z,12.40
2023-02-18T09:28:56.576Z,12.30
2023-02-18T09:31:25.719Z,12.30
2023-02-18T09:33:57.252Z,12.40
2023-02-18T09:36:24.393Z,12.50
2023-02-18T09:38:51.550Z,12.40
2023-02-18T09:41:31.046Z,12.40
2023-02-18T09:44:02.276Z,12.50
2023-02-18T09:46:34.518Z,12.40
2023-02-18T09:49:04.769Z,12.40
2023-02-18T09:51:32.015Z,12.40
2023-02-18T09:53:59.462Z,12.40
2023-02-18T09:56:35.894Z,12.60
2023-02-18T09:59:10.057Z,12.60
2023-02-18T10:01:40.333Z,12.50
2023-02-18T10:04:17.244Z,12.40
2023-02-18T10:06:46.535Z,12.50
2023-02-18T10:09:33.755Z,12.60
2023-02-18T10:12:16.354Z,12.70
2023-02-18T10:14:48.267Z,12.60
2023-02-18T10:17:17.593Z,12.70
2023-02-18T10:19:47.643Z,12.70
2023-02-18T10:22:16.275Z,12.70
2023-02-18T10:24:53.875Z,12.70
2023-02-18T10:27:32.883Z,12.90
2023-02-18T10:30:21.154Z,12.90
2023-02-18T10:32:50.906Z,12.90
2023-02-18T10:35:34.639Z,12.90
2023-02-18T10:38:17.467Z,12.90
2023-02-18T10:41:12.226Z,12.80
2023-02-18T10:43:44.240Z,12.80
2023-02-18T10:46:45.762Z,13.00
2023-02-18T10:49:47.540Z,12.80
2023-02-18T10:52:17.831Z,12.70
2023-02-18T10:54:58.195Z,12.80
2023-02-18T10:57:25.773Z,12.90
2023-02-18T10:59:58.406Z,13.00
2023-02-18T11:02:30.901Z,12.90
2023-02-18T11:05:07.648Z,12.80
2023-02-18T11:07:38.359Z,12.90
2023-02-18T11:10:18.372Z,13.00
2023-02-18T11:12:49.276Z,13.10
2023-02-18T11:15:20.706Z,13.10
2023-02-18T11:17:50.561Z,13.20
2023-02-18T11:20:25.801Z,13.10
2023-02-18T11:22:57.248Z,13.20
2023-02-18T11:25:28.211Z,13.20
2023-02-18T11:28:20.503Z,13.10
2023-02-18T11:30:54.362Z,13.10
2023-02-18T11:33:47.730Z,13.00
2023-02-18T11:36:35.129Z,13.20
2023-02-18T11:39:07.760Z,13.20
2023-02-18T11:41:46.256Z,13.10
2023-02-18T11:44:28.878Z,13.00
2023-02-18T11:47:23.856Z,13.20
2023-02-18T11:50:23.263Z,13.20
2023-02-18T11:52:52.193Z,13.10
2023-02-18T11:55:25.092Z,13.10
2023-02-18T11:58:05.206Z,13.30
2023-02-18T12:00:46.909Z,13.20
2023-02-18T12:03:37.464Z,13.20
2023-02-18T12:06:18.469Z,13.20
2023-02-18T12:08:53.519Z,13.20
2023-02-18T12:11:48.980Z,13.10
2023-02-18T12:14:21.808Z,12.90
2023-02-18T12:17:41.145Z,12.90
2023-02-18T12:20:16.453Z,12.90
2023-02-18T12:22:56.473Z,12.90
2023-02-18T12:26:08.068Z,12.90
2023-02-18T12:29:04.522Z,12.90
2023-02-18T12:31:51.965Z,13.00
2023-02-18T12:34:27.391Z,13.00
2023-02-18T12:36:57.043Z,12.90
2023-02-18T12:39:51.315Z,12.90
2023-02-18T12:42:42.753Z,12.80
2023-02-18T12:45:28.731Z,12.70
2023-02-18T12:48:19.907Z,12.80
2023-02-18T12:50:58.265Z,12.60
2023-02-18T12:53:32.581Z,12.60
2023-02-18T12:56:23.507Z,12.70
2023-02-18T12:59:14.150Z,12.60
2023-02-18T13:01:51.796Z,12.60
2023-02-18T13:05:14.162Z,12.50
2023-02-18T13:08:06.220Z,12.50
2023-02-18T13:11:00.501Z,12.50
2023-02-18T13:13:34.756Z,12.50
2023-02-18T13:16:04.971Z,12.40
2023-02-18T13:18:39.672Z,12.40
2023-02-18T13:21:13.342Z,12.40
2023-02-18T13:23:53.369Z,12.50
2023-02-18T13:26:22.213Z,12.50
2023-02-18T13:29:22.576Z,12.50
2023-02-18T13:31:54.727Z,12.50
2023-02-18T13:34:55.582Z,12.30
2023-02-18T13:37:57.041Z,12.40
2023-02-18T13:40:30.073Z,12.30
2023-02-18T13:43:30.193Z,12.20
2023-02-18T13:46:18.263Z,12.20
2023-02-18T13:48:46.932Z,12.20
2023-02-18T13:51:17.462Z,12.20
2023-02-18T13:53:51.921Z,12.40
2023-02-18T13:56:31.058Z,12.40
2023-02-18T13:59:08.584Z,12.50
2023-02-18T14:01:40.890Z,12.40
2023-02-18T14:04:36.483Z,12.50
2023-02-18T14:07:41.588Z,12.40
2023-02-18T14:10:18.575Z,12.30
2023-02-18T14:13:23.370Z,12.30
2023-02-18T14:15:55.133Z,12.40
2023-02-18T14:18:26.067Z,12.50
2023-02-18T14:21:04.213Z,12.50
2023-02-18T14:23:37.054Z,12.50
2023-02-18T14:26:06.961Z,12.50
2023-02-18T14:28:36.512Z,12.50
2023-02-18T14:31:06.581Z,12.50
2023-02-18T14:33:36.743Z,12.50
2023-02-18T14:36:10.463Z,12.60
2023-02-18T14:38:46.725Z,12.50
2023-02-18T14:41:34.808Z,12.60
2023-02-18T14:44:16.392Z,12.60
2023-02-18T14:47:08.386Z,12.70
2023-02-18T14:49:39.857Z,12.70
2023-02-18T14:52:33.973Z,12.70
2023-02-18T14:55:02.417Z,12.60
2023-02-18T14:57:45.579Z,12.60
2023-02-18T15:00:25.259Z,12.50
2023-02-18T15:02:54.846Z,12.60
2023-02-18T15:05:25.409Z,12.60
2023-02-18T15:08:08.954Z,12.60
2023-02-18T15:10:44.259Z,12.60
2023-02-18T15:13:36.146Z,12.70
2023-02-18T15:16:20.820Z,12.70
2023-02-18T15:19:13.590Z,12.70
2023-02-18T15:21:43.973Z,12.60
2023-02-18T15:24:34.137Z,12.50
2023-02-18T15:27:16.932Z,12.60
2023-02-18T15:29:43.836Z,12.50
2023-02-18T15:32:27.585Z,12.40
2023-02-18T15:35:01.994Z,12.50
2023-02-18T15:37:31.102Z,12.50
2023-02-18T15:39:58.731Z,12.50
2023-02-18T15:42:26.012Z,12.40
2023-02-18T15:45:03.748Z,12.50
2023-02-18T15:47:31.525Z,12.50
2023-02-18T15:50:01.520Z,12.50
2023-02-18T15:52:33.200Z,12.50
2023-02-18T15:55:12.070Z,12.60
2023-02-18T15:57:40.208Z,12.50
2023-02-18T16:00:21.142Z,12.60
2023-02-18T16:03:09.418Z,12.50
2023-02-18T16:05:39.127Z,12.50
2023-02-18T16:08:14.631Z,12.60
2023-02-18T16:10:47.410Z,12.50
2023-02-18T16:13:16.954Z,12.40
2023-02-18T16:15:47.217Z,12.30
2023-02-18T16:18:42.381Z,12.20
2023-02-18T16:21:18.667Z,12.20
2023-02-18T16:23:51.600Z,12.20
2023-02-18T16:26:41.863Z,12.30
2023-02-18T16:29:24.235Z,12.30
2023-02-18T16:31:51.543Z,12.30
2023-02-18T16:34:19.388Z,12.30
2023-02-18T16:37:05.107Z,12.30
2023-02-18T16:39:34.959Z,12.40
2023-02-18T16:42:02.103Z,12.30
2023-02-18T16:44:29.062Z,12.40
2023-02-18T16:46:57.167Z,12.40
2023-02-18T16:49:24.252Z,12.50
2023-02-18T16:51:51.396Z,12.40
2023-02-18T16:54:19.056Z,12.50
2023-02-18T16:56:46.256Z,12.30
2023-02-18T16:59:13.110Z,12.40
2023-02-18T17:01:44.892Z,12.40
2023-02-18T17:04:17.420Z,12.40
2023-02-18T17:06:48.601Z,12.40
2023-02-18T17:09:17.758Z,12.30
2023-02-18T17:11:46.014Z,12.20
2023-02-18T17:14:18.207Z,12.30
2023-02-18T17:16:46.410Z,12.30
2023-02-18T17:19:13.892Z,12.40
2023-02-18T17:21:41.836Z,12.40
2023-02-18T17:24:16.914Z,12.40
2023-02-18T17:26:44.509Z,12.30
2023-02-18T17:29:11.614Z,12.40
2023-02-18T17:31:44.474Z,12.30
2023-02-18T17:34:17.906Z,12.00
2023-02-18T17:36:45.610Z,12.10
2023-02-18T17:39:14.395Z,12.10
2023-02-18T17:41:42.322Z,12.10
2023-02-18T17:44:21.734Z,12.10
2023-02-18T17:46:50.072Z,12.10
2023-02-18T17:49:17.348Z,12.10
2023-02-18T17:51:44.525Z,12.10
2023-02-18T17:54:18.197Z,12.20
2023-02-18T17:56:46.448Z,12.10
2023-02-18T17:59:13.818Z,12.10
2023-02-18T18:01:42.388Z,12.20
2023-02-18T18:04:18.496Z,12.20
2023-02-18T18:06:46.861Z,12.20
2023-02-18T18:09:14.096Z,12.20
2023-02-18T18:11:40.948Z,12.20
2023-02-18T18:14:09.653Z,12.10
2023-02-18T18:16:36.493Z,12.10
2023-02-18T18:19:03.703Z,12.10
2023-02-18T18:21:34.880Z,12.10
2023-02-18T18:24:02.629Z,12.10
2023-02-18T18:26:30.077Z,12.00
2023-02-18T18:28:57.012Z,12.10
2023-02-18T18:31:24.028Z,12.10
2023-02-18T18:33:53.745Z,12.10
2023-02-18T18:36:24.106Z,12.10
2023-02-18T18:38:51.709Z,12.00
2023-02-18T18:41:21.463Z,12.10
2023-02-18T18:43:49.560Z,12.00
2023-02-18T18:46:16.698Z,12.00
2023-02-18T18:48:43.521Z,11.90
2023-02-18T18:51:20.028Z,11.90
2023-02-18T18:53:47.433Z,11.90
2023-02-18T18:56:14.486Z,12.00
2023-02-18T18:58:41.586Z,12.10
2023-02-18T19:01:16.324Z,11.90
2023-02-18T19:03:44.274Z,11.90
2023-02-18T19:06:12.248Z,12.00
2023-02-18T19:08:39.368Z,12.00
2023-02-18T19:11:06.844Z,12.00
2023-02-18T19:13:35.969Z,12.00
2023-02-18T19:16:22.395Z,12.00
2023-02-18T19:18:49.655Z,12.00
2023-02-18T19:21:17.059Z,11.90
2023-02-18T19:23:44.151Z,11.90
2023-02-18T19:26:11.507Z,11.90
2023-02-18T19:28:38.419Z,11.70
2023-02-18T19:31:11.888Z,11.80
2023-02-18T19:33:39.451Z,11.80
2023-02-18T19:36:10.831Z,11.90
2023-02-18T19:38:38.495Z,11.90
2023-02-18T19:41:19.555Z,11.90
2023-02-18T19:43:49.325Z,11.80
2023-02-18T19:46:18.336Z,11.90
2023-02-18T19:48:52.773Z,11.90
2023-02-18T19:51:21.309Z,12.00
2023-02-18T19:53:48.270Z,12.00
2023-02-18T19:56:15.168Z,12.00
2023-02-18T19:58:42.068Z,11.90
2023-02-18T20:01:13.993Z,11.90
2023-02-18T20:03:41.890Z,12.00
2023-02-18T20:06:16.525Z,12.00
2023-02-18T20:08:43.996Z,12.00
2023-02-18T20:11:11.437Z,12.00
2023-02-18T20:13:38.491Z,12.00
2023-02-18T20:16:10.139Z,12.00
2023-02-18T20:18:36.993Z,12.00
2023-02-18T20:21:04.034Z,12.00
2023-02-18T20:23:30.989Z,11.90
2023-02-18T20:25:57.882Z,11.90
2023-02-18T20:28:24.701Z,12.10
2023-02-18T20:31:03.058Z,12.00
2023-02-18T20:33:30.342Z,12.10
2023-02-18T20:35:57.362Z,12.10
2023-02-18T20:38:24.428Z,12.10
2023-02-18T20:40:51.341Z,12.20
2023-02-18T20:43:18.277Z,12.10
2023-02-18T20:45:45.135Z,12.10
2023-02-18T20:48:12.014Z,12.10
2023-02-18T20:50:39.079Z,12.10
2023-02-18T20:53:06.067Z,12.10
2023-02-18T20:55:33.012Z,12.10
2023-02-18T20:57:59.914Z,12.10
2023-02-18T21:00:26.859Z,12.10
2023-02-18T21:02:54.687Z,12.10
2023-02-18T21:05:21.531Z,12.20
2023-02-18T21:07:48.512Z,12.10
2023-02-18T21:10:15.537Z,12.10
2023-02-18T21:12:43.230Z,12.10
2023-02-18T21:15:10.174Z,12.20
2023-02-18T21:17:37.207Z,12.10
2023-02-18T21:20:05.211Z,12.20
2023-02-18T21:22:32.237Z,12.20
2023-02-18T21:25:00.463Z,12.20
2023-02-18T21:27:27.500Z,12.10
2023-02-18T21:29:54.495Z,12.00
2023-02-18T21:32:21.428Z,11.90
2023-02-18T21:34:48.612Z,12.00
2023-02-18T21:37:15.577Z,12.00
2023-02-18T21:39:42.416Z,12.00
2023-02-18T21:42:10.656Z,12.00
2023-02-18T21:44:42.308Z,12.00
2023-02-18T21:47:10.089Z,11.90
2023-02-18T21:49:36.996Z,11.90
2023-02-18T21:52:09.925Z,12.00
2023-02-18T21:54:44.596Z,12.10
2023-02-18T21:57:19.934Z,12.00
2023-02-18T21:59:47.672Z,11.90
2023-02-18T22:02:21.702Z,11.90
2023-02-18T22:04:50.176Z,11.90
2023-02-18T22:07:17.982Z,11.90
2023-02-18T22:09:47.356Z,11.90
2023-02-18T22:12:15.613Z,11.90
2023-02-18T22:14:44.598Z,11.90
2023-02-18T22:17:12.677Z,11.90
2023-02-18T22:19:39.766Z,11.80
2023-02-18T22:22:06.742Z,11.90
2023-02-18T22:24:34.069Z,11.70
2023-02-18T22:27:01.827Z,11.80
2023-02-18T22:29:30.333Z,11.80
2023-02-18T22:31:57.418Z,11.80
2023-02-18T22:34:24.850Z,11.70
2023-02-18T22:36:51.983Z,11.60
2023-02-18T22:39:19.025Z,11.80
2023-02-18T22:41:45.866Z,11.70
2023-02-18T22:44:15.233Z,11.80
2023-02-18T22:46:42.170Z,11.80
2023-02-18T22:49:09.414Z,11.80
2023-02-18T22:51:39.178Z,11.80
2023-02-18T22:54:11.413Z,11.80
2023-02-18T22:56:38.468Z,11.80
2023-02-18T22:59:05.797Z,11.80
2023-02-18T23:01:35.676Z,11.80
2023-02-18T23:04:09.601Z,11.80
2023-02-18T23:06:39.020Z,11.70
2023-02-18T23:09:08.065Z,11.80
2023-02-18T23:11:35.188Z,11.80
2023-02-18T23:14:21.450Z,11.80
2023-02-18T23:17:15.499Z,11.90
2023-02-18T23:19:44.825Z,11.90
2023-02-18T23:22:13.613Z,12.00
2023-02-18T23:24:43.625Z,12.00
2023-02-18T23:27:12.318Z,12.00
2023-02-18T23:29:39.300Z,11.90
2023-02-18T23:32:06.861Z,11.90
2023-02-18T23:34:33.998Z,11.90
2023-02-18T23:37:01.221Z,12.00
2023-02-18T23:39:29.454Z,12.00
2023-02-18T23:41:56.711Z,12.00
2023-02-18T23:44:25.545Z,12.00
2023-02-18T23:46:52.811Z,11.90
2023-02-18T23:49:25.080Z,12.10
2023-02-18T23:51:53.722Z,12.10
2023-02-18T23:54:21.434Z,12.00
2023-02-18T23:56:48.480Z,12.10
2023-02-18T23:59:15.693Z,12.10
